< < Back
Terminal Aerodrome Forecast


Current Version              Previous Versions:   1  2  3  4  5  6  7  8  9  

Terminal Aerodrome Forecast

881
FTUS44 KMRX 181720
TAFCHA
TAF
KCHA 181720Z 1818/1918 02005KT P6SM BKN070
     FM191300 36010KT P6SM SCT070 BKN150=

Latest METAR

645
SAUS80 KWBC 182000
MTRCHA
METAR KCHA 181953Z 05006KT 10SM SCT060 BKN090 BKN130 BKN250 18/04 A3023
RMK AO2 SLP232 T01780039


USA.gov is the U.S. government's official web portal to all federal, state and local government web resources and services.